Terminal Aerodrome Forecast
Issued by NWS

Home | Current Version | Previous Version | Text Only | Print | Product List | Glossary On
Versions: 1 2 3 4 5 6 7 8 9 10 11 12 13 14 15 16 17
000
FTUS46 KMTR 190500
TAFSJC
TAF
KSJC 190526Z 1906/2006 30006KT P6SM SKC
     FM190800 VRB03KT P6SM SKC
     FM191200 00000KT P6SM BKN010
     FM191600 VRB03KT P6SM FEW012
     FM192100 30011KT P6SM SKC
     FM200400 30006KT P6SM SKC=

USA.gov is the U.S. government's official web portal to all federal, state and local government web resources and services.